createdAt,value
2022-11-05T00:05:14.072Z,18.45
2022-11-05T00:10:28.484Z,15.23
2022-11-05T00:15:48.878Z,14.00
2022-11-05T00:20:50.752Z,14.35
2022-11-05T00:26:01.047Z,13.40
2022-11-05T00:31:06.232Z,16.40
2022-11-05T00:36:09.708Z,13.50
2022-11-05T00:41:11.470Z,13.53
2022-11-05T00:46:13.182Z,16.05
2022-11-05T00:51:14.947Z,15.50
2022-11-05T00:56:16.695Z,14.52
2022-11-05T01:01:18.370Z,14.32
2022-11-05T01:06:20.125Z,15.35
2022-11-05T01:11:33.810Z,16.50
2022-11-05T01:16:36.320Z,15.73
2022-11-05T01:21:38.300Z,17.77
2022-11-05T01:26:40.012Z,20.05
2022-11-05T01:31:41.716Z,21.35
2022-11-05T01:36:43.298Z,22.13
2022-11-05T01:41:44.929Z,25.50
2022-11-05T01:46:46.801Z,28.10
2022-11-05T01:51:48.884Z,23.52
2022-11-05T01:56:55.954Z,25.55
2022-11-05T02:01:58.250Z,24.70
2022-11-05T02:07:00.434Z,25.98
2022-11-05T02:12:02.745Z,29.73
2022-11-05T02:17:20.951Z,29.15
2022-11-05T02:22:43.963Z,25.98
2022-11-05T02:28:14.663Z,25.05
2022-11-05T02:33:35.304Z,25.90
2022-11-05T02:38:42.724Z,26.25
2022-11-05T02:43:59.551Z,29.10
2022-11-05T02:49:26.042Z,32.17
2022-11-05T02:54:59.447Z,27.60
2022-11-05T03:00:53.869Z,27.52
2022-11-05T03:06:20.295Z,27.60
2022-11-05T03:11:25.478Z,30.25
2022-11-05T03:16:47.159Z,25.35
2022-11-05T03:22:13.146Z,24.88
2022-11-05T03:27:23.542Z,24.17
2022-11-05T03:32:27.231Z,23.27
2022-11-05T03:37:33.517Z,18.93
2022-11-05T03:42:38.677Z,24.73
2022-11-05T03:47:44.463Z,25.75
2022-11-05T03:52:55.580Z,26.08
2022-11-05T03:57:58.387Z,26.42
2022-11-05T04:03:00.038Z,26.83
2022-11-05T04:08:20.567Z,33.05
2022-11-05T04:13:25.169Z,26.52
2022-11-05T04:18:26.802Z,28.20
2022-11-05T04:23:47.273Z,26.38
2022-11-05T04:29:10.801Z,27.17
2022-11-05T04:34:12.456Z,29.42
2022-11-05T04:39:14.073Z,27.92
2022-11-05T04:44:16.454Z,28.52
2022-11-05T04:49:18.065Z,26.92
2022-11-05T04:54:19.711Z,28.67
2022-11-05T04:59:21.317Z,28.95
2022-11-05T05:04:22.945Z,26.88
2022-11-05T05:09:24.574Z,28.05
2022-11-05T05:14:26.241Z,29.42
2022-11-05T05:19:27.965Z,28.98
2022-11-05T05:24:29.592Z,26.13
2022-11-05T05:29:31.192Z,27.70
2022-11-05T05:34:32.936Z,26.08
2022-11-05T05:39:34.515Z,25.55
2022-11-05T05:44:36.105Z,25.92
2022-11-05T05:49:37.731Z,30.52
2022-11-05T05:54:42.663Z,28.65
2022-11-05T05:59:44.754Z,26.88
2022-11-05T06:04:46.348Z,30.40
2022-11-05T06:09:47.944Z,27.02
2022-11-05T06:14:49.555Z,25.45
2022-11-05T06:19:51.404Z,26.20
2022-11-05T06:24:53.007Z,28.52
2022-11-05T06:29:54.748Z,25.55
2022-11-05T06:34:56.490Z,27.70
2022-11-05T06:39:58.294Z,26.38
2022-11-05T06:44:59.913Z,27.38
2022-11-05T06:50:02.556Z,27.83
2022-11-05T06:55:04.765Z,27.42
2022-11-05T07:00:08.164Z,27.30
2022-11-05T07:05:12.994Z,27.90
2022-11-05T07:10:17.403Z,27.83
2022-11-05T07:15:19.023Z,29.42
2022-11-05T07:20:20.638Z,34.08
2022-11-05T07:25:22.326Z,31.30
2022-11-05T07:30:24.185Z,29.05
2022-11-05T07:35:26.131Z,27.30
2022-11-05T07:40:29.413Z,28.15
2022-11-05T07:45:32.046Z,26.65
2022-11-05T07:50:37.577Z,28.73
2022-11-05T07:55:40.795Z,30.17
2022-11-05T08:00:42.601Z,29.65
2022-11-05T08:05:46.566Z,29.40
2022-11-05T08:10:48.235Z,32.50
2022-11-05T08:15:49.856Z,31.05
2022-11-05T08:20:51.571Z,31.65
2022-11-05T08:25:53.909Z,30.83
2022-11-05T08:30:57.176Z,29.85
2022-11-05T08:36:03.247Z,25.30
2022-11-05T08:41:05.374Z,28.67
2022-11-05T08:46:06.988Z,28.52
2022-11-05T08:51:08.592Z,23.45
2022-11-05T08:56:10.174Z,25.35
2022-11-05T09:01:11.800Z,21.80
2022-11-05T09:06:14.440Z,20.85
2022-11-05T09:11:16.493Z,20.13
2022-11-05T09:16:26.478Z,20.73
2022-11-05T09:21:28.123Z,18.85
2022-11-05T09:26:29.827Z,15.75
2022-11-05T09:31:31.410Z,15.43
2022-11-05T09:36:33.027Z,14.07
2022-11-05T09:41:39.163Z,14.38
2022-11-05T09:46:56.559Z,16.15
2022-11-05T09:51:59.267Z,14.95
2022-11-05T09:57:02.991Z,14.27
2022-11-05T10:02:17.060Z,14.77
2022-11-05T10:07:23.625Z,13.73
2022-11-05T10:12:50.888Z,11.98
2022-11-05T10:18:11.857Z,12.60
2022-11-05T10:23:15.534Z,6.57
2022-11-05T10:28:22.555Z,6.07
2022-11-05T10:33:59.648Z,5.35
2022-11-05T10:39:19.303Z,5.03
2022-11-05T10:44:33.295Z,4.78
2022-11-05T10:49:54.014Z,4.80
2022-11-05T10:55:00.242Z,5.15
2022-11-05T11:00:34.078Z,4.65
2022-11-05T11:05:38.631Z,4.72
2022-11-05T11:10:50.902Z,4.35
2022-11-05T11:15:53.174Z,4.07
2022-11-05T11:21:06.330Z,4.57
2022-11-05T11:26:10.207Z,3.92
2022-11-05T11:31:24.248Z,3.58
2022-11-05T11:36:32.235Z,3.25
2022-11-05T11:41:41.881Z,3.55
2022-11-05T11:46:48.697Z,2.80
2022-11-05T11:51:59.315Z,3.05
2022-11-05T11:57:03.374Z,3.63
2022-11-05T12:02:24.784Z,3.05
2022-11-05T12:07:41.601Z,3.00
2022-11-05T12:13:07.906Z,2.72
2022-11-05T12:18:20.047Z,2.70
2022-11-05T12:24:07.039Z,2.28
2022-11-05T12:29:23.858Z,2.42
2022-11-05T12:35:00.805Z,2.90
2022-11-05T12:40:20.587Z,2.92
2022-11-05T12:45:36.569Z,2.92
2022-11-05T12:50:49.023Z,2.75
2022-11-05T12:55:52.661Z,2.80
2022-11-05T13:01:07.817Z,2.60
2022-11-05T13:06:18.787Z,2.50
2022-11-05T13:11:28.052Z,2.55
2022-11-05T13:16:37.045Z,2.88
2022-11-05T13:21:40.231Z,2.90
2022-11-05T13:26:54.104Z,2.30
2022-11-05T13:32:02.766Z,2.40
2022-11-05T13:37:25.425Z,2.33
2022-11-05T13:43:00.892Z,2.70
2022-11-05T13:48:14.402Z,3.10
2022-11-05T13:53:28.086Z,2.88
2022-11-05T13:58:58.942Z,2.53
2022-11-05T14:04:02.295Z,2.75
2022-11-05T14:09:10.088Z,2.65
2022-11-05T14:14:19.855Z,2.40
2022-11-05T14:19:30.527Z,3.17
2022-11-05T14:24:38.392Z,2.72
2022-11-05T14:29:48.216Z,2.63
2022-11-05T14:34:56.584Z,2.80
2022-11-05T14:40:23.518Z,2.60
2022-11-05T14:45:33.034Z,3.10
2022-11-05T14:50:36.581Z,3.33
2022-11-05T14:55:41.426Z,3.20
2022-11-05T15:00:45.392Z,2.65
2022-11-05T15:05:46.947Z,3.10
2022-11-05T15:10:50.311Z,2.80
2022-11-05T15:15:52.333Z,3.20
2022-11-05T15:20:58.427Z,2.92
2022-11-05T15:26:25.276Z,2.35
2022-11-05T15:31:43.188Z,3.10
2022-11-05T15:36:50.315Z,2.30
2022-11-05T15:41:52.066Z,2.80
2022-11-05T15:47:21.340Z,2.72
2022-11-05T15:52:36.240Z,3.05
2022-11-05T15:57:40.435Z,3.15
2022-11-05T16:02:42.793Z,3.55
2022-11-05T16:07:46.920Z,3.50
2022-11-05T16:12:48.985Z,4.13
2022-11-05T16:17:57.435Z,4.20
2022-11-05T16:23:16.159Z,5.70
2022-11-05T16:28:24.887Z,4.93
2022-11-05T16:33:33.033Z,4.50
2022-11-05T16:38:34.638Z,4.82
2022-11-05T16:43:36.310Z,5.00
2022-11-05T16:48:37.961Z,5.60
2022-11-05T16:53:39.612Z,4.47
2022-11-05T16:58:43.278Z,4.30
2022-11-05T17:03:45.959Z,10.10
2022-11-05T17:08:48.606Z,16.67
2022-11-05T17:13:51.083Z,20.35
2022-11-05T17:18:52.729Z,14.85
2022-11-05T17:23:54.440Z,11.18
2022-11-05T17:28:56.060Z,10.23
2022-11-05T17:33:58.376Z,6.90
2022-11-05T17:38:59.996Z,6.75
2022-11-05T17:44:01.707Z,6.85
2022-11-05T17:49:03.310Z,6.57
2022-11-05T17:54:05.123Z,6.63
2022-11-05T17:59:06.877Z,6.88
2022-11-05T18:04:09.373Z,7.35
2022-11-05T18:09:11.931Z,7.45
2022-11-05T18:14:13.574Z,6.72
2022-11-05T18:19:15.550Z,9.70
2022-11-05T18:24:17.488Z,8.95
2022-11-05T18:29:19.150Z,8.10
2022-11-05T18:34:20.843Z,7.82
2022-11-05T18:39:22.851Z,7.80
2022-11-05T18:44:24.856Z,7.80
2022-11-05T18:49:27.220Z,7.90
2022-11-05T18:54:28.870Z,8.00
2022-11-05T18:59:37.740Z,8.45
2022-11-05T19:04:50.508Z,9.35
2022-11-05T19:10:02.207Z,9.98
2022-11-05T19:15:04.285Z,8.90
2022-11-05T19:20:07.186Z,8.63
2022-11-05T19:25:08.817Z,8.27
2022-11-05T19:30:10.668Z,8.45
2022-11-05T19:35:12.418Z,7.93
2022-11-05T19:40:14.079Z,8.77
2022-11-05T19:45:38.736Z,8.73
2022-11-05T19:50:42.161Z,10.13
2022-11-05T19:55:44.938Z,10.77
2022-11-05T20:00:46.606Z,10.40
2022-11-05T20:05:48.428Z,10.43
2022-11-05T20:10:54.471Z,10.70
2022-11-05T20:15:57.032Z,9.57
2022-11-05T20:21:09.173Z,9.15
2022-11-05T20:26:11.782Z,9.75
2022-11-05T20:31:16.260Z,10.07
2022-11-05T20:36:23.458Z,9.93
2022-11-05T20:41:26.581Z,10.88
2022-11-05T20:46:29.334Z,11.05
2022-11-05T20:51:31.267Z,11.77
2022-11-05T20:56:36.865Z,12.40
2022-11-05T21:01:38.665Z,12.80
2022-11-05T21:06:40.560Z,12.00
2022-11-05T21:12:02.190Z,12.32
2022-11-05T21:17:04.575Z,11.50
2022-11-05T21:22:06.967Z,13.32
2022-11-05T21:27:08.678Z,13.32
2022-11-05T21:32:10.348Z,11.00
2022-11-05T21:37:12.006Z,11.27
2022-11-05T21:42:13.774Z,10.90
2022-11-05T21:47:15.737Z,10.50
2022-11-05T21:52:35.990Z,8.57
2022-11-05T21:57:56.424Z,9.02
2022-11-05T22:03:00.016Z,8.93
2022-11-05T22:08:01.834Z,9.80
2022-11-05T22:13:03.474Z,8.65
2022-11-05T22:18:05.148Z,9.60
2022-11-05T22:23:11.110Z,9.40
2022-11-05T22:28:13.405Z,9.57
2022-11-05T22:33:15.244Z,8.30
2022-11-05T22:38:16.902Z,8.32
2022-11-05T22:43:18.543Z,8.95
2022-11-05T22:48:20.147Z,7.95
2022-11-05T22:53:21.830Z,7.72
2022-11-05T22:58:23.475Z,8.27
2022-11-05T23:03:26.751Z,7.97
2022-11-05T23:08:48.205Z,7.43
2022-11-05T23:13:49.870Z,7.18
2022-11-05T23:19:10.234Z,7.35
2022-11-05T23:24:13.183Z,7.85
2022-11-05T23:29:14.812Z,6.93
2022-11-05T23:34:16.427Z,7.25
2022-11-05T23:39:18.031Z,7.38
2022-11-05T23:44:38.366Z,7.13
2022-11-05T23:49:40.024Z,7.45
2022-11-05T23:54:41.782Z,8.00
2022-11-05T23:59:43.351Z,7.35
